createdAt,value
2018-09-27T00:00:16.180Z,2.50
2018-09-27T00:02:44.887Z,2.47
2018-09-27T00:05:13.593Z,2.17
2018-09-27T00:07:42.359Z,2.70
2018-09-27T00:10:11.085Z,2.23
2018-09-27T00:12:39.848Z,2.73
2018-09-27T00:15:08.594Z,2.57
2018-09-27T00:17:37.455Z,2.20
2018-09-27T00:20:06.580Z,2.63
2018-09-27T00:22:35.279Z,2.10
2018-09-27T00:25:04.076Z,2.67
2018-09-27T00:27:33.071Z,2.27
2018-09-27T00:30:01.753Z,2.07
2018-09-27T00:32:30.447Z,2.30
2018-09-27T00:34:59.396Z,2.10
2018-09-27T00:37:28.092Z,2.07
2018-09-27T00:39:56.806Z,2.30
2018-09-27T00:42:25.505Z,2.10
2018-09-27T00:44:54.269Z,2.37
2018-09-27T00:47:22.933Z,2.10
2018-09-27T00:49:51.645Z,2.10
2018-09-27T00:52:20.316Z,2.00
2018-09-27T00:54:49.004Z,2.23
2018-09-27T00:57:17.697Z,1.90
2018-09-27T00:59:46.445Z,2.00
2018-09-27T01:02:15.264Z,2.33
2018-09-27T01:04:43.996Z,2.10
2018-09-27T01:07:12.704Z,2.20
2018-09-27T01:09:41.411Z,1.80
2018-09-27T01:12:10.128Z,1.70
2018-09-27T01:14:38.821Z,2.30
2018-09-27T01:17:07.479Z,1.90
2018-09-27T01:19:36.170Z,1.67
2018-09-27T01:22:04.985Z,2.33
2018-09-27T01:24:33.672Z,2.50
2018-09-27T01:27:02.436Z,2.20
2018-09-27T01:29:31.168Z,2.63
2018-09-27T01:31:59.829Z,2.30
2018-09-27T01:34:28.461Z,2.13
2018-09-27T01:36:57.217Z,2.07
2018-09-27T01:39:25.972Z,2.10
2018-09-27T01:41:54.707Z,1.90
2018-09-27T01:44:23.436Z,2.00
2018-09-27T01:46:52.189Z,1.83
2018-09-27T01:49:20.912Z,2.03
2018-09-27T01:51:49.580Z,1.80
2018-09-27T01:54:18.244Z,2.20
2018-09-27T01:56:46.948Z,1.57
2018-09-27T01:59:15.600Z,1.97
2018-09-27T02:01:44.301Z,1.67
2018-09-27T02:04:13.076Z,1.70
2018-09-27T02:06:41.748Z,1.80
2018-09-27T02:09:10.791Z,1.87
2018-09-27T02:11:39.745Z,2.00
2018-09-27T02:14:08.449Z,1.70
2018-09-27T02:16:37.933Z,1.93
2018-09-27T02:19:06.628Z,2.10
2018-09-27T02:21:35.341Z,2.37
2018-09-27T02:24:04.070Z,2.00
2018-09-27T02:26:32.772Z,1.87
2018-09-27T02:29:01.466Z,1.97
2018-09-27T02:31:30.243Z,1.67
2018-09-27T02:33:59.047Z,2.07
2018-09-27T02:36:27.793Z,1.73
2018-09-27T02:38:56.480Z,2.07
2018-09-27T02:41:25.308Z,2.00
2018-09-27T02:43:54.101Z,1.80
2018-09-27T02:46:22.848Z,1.87
2018-09-27T02:48:51.572Z,2.10
2018-09-27T02:51:20.207Z,2.20
2018-09-27T02:53:48.952Z,2.07
2018-09-27T02:56:17.767Z,2.00
2018-09-27T02:58:46.672Z,1.90
2018-09-27T03:01:15.410Z,2.03
2018-09-27T03:03:44.095Z,2.13
2018-09-27T03:06:12.796Z,2.43
2018-09-27T03:08:41.558Z,1.80
2018-09-27T03:11:10.236Z,1.90
2018-09-27T03:13:39.078Z,1.87
2018-09-27T03:16:07.666Z,1.60
2018-09-27T03:18:36.412Z,1.60
2018-09-27T03:21:05.335Z,2.17
2018-09-27T03:23:34.500Z,1.80
2018-09-27T03:26:03.282Z,1.83
2018-09-27T03:28:32.036Z,1.87
2018-09-27T03:31:00.840Z,2.20
2018-09-27T03:36:03.443Z,1.90
2018-09-27T03:38:32.163Z,2.03
2018-09-27T03:41:00.920Z,1.90
2018-09-27T03:43:29.753Z,2.00
2018-09-27T03:45:58.484Z,2.10
2018-09-27T03:48:27.267Z,2.37
2018-09-27T03:50:55.977Z,2.00
2018-09-27T03:53:24.749Z,2.10
2018-09-27T03:55:53.528Z,2.10
2018-09-27T03:58:22.265Z,1.73
2018-09-27T04:00:51.385Z,2.20
2018-09-27T04:03:20.186Z,2.13
2018-09-27T04:05:48.890Z,2.33
2018-09-27T04:08:17.654Z,2.00
2018-09-27T04:10:46.311Z,2.27
2018-09-27T04:13:15.124Z,2.43
2018-09-27T04:15:43.862Z,2.30
2018-09-27T04:18:12.473Z,2.13
2018-09-27T04:20:48.547Z,1.80
2018-09-27T04:23:17.545Z,2.00
2018-09-27T04:25:46.241Z,2.10
2018-09-27T04:28:14.944Z,2.20
2018-09-27T04:30:43.785Z,1.87
2018-09-27T04:33:12.473Z,2.30
2018-09-27T04:35:41.200Z,2.70
2018-09-27T04:38:10.031Z,2.50
2018-09-27T04:40:38.682Z,2.13
2018-09-27T04:43:07.454Z,2.87
2018-09-27T04:45:36.219Z,3.43
2018-09-27T04:48:04.897Z,2.40
2018-09-27T04:50:33.612Z,3.43
2018-09-27T04:53:02.650Z,2.47
2018-09-27T04:55:31.504Z,2.10
2018-09-27T04:58:00.221Z,2.63
2018-09-27T05:00:29.299Z,2.30
2018-09-27T05:02:58.057Z,2.50
2018-09-27T05:05:27.355Z,2.27
2018-09-27T05:07:56.040Z,2.40
2018-09-27T05:10:24.887Z,1.97
2018-09-27T05:12:53.888Z,2.57
2018-09-27T05:15:22.932Z,2.30
2018-09-27T05:17:51.777Z,2.57
2018-09-27T05:20:23.132Z,2.30
2018-09-27T05:22:52.025Z,2.40
2018-09-27T05:25:20.740Z,2.20
2018-09-27T05:27:49.517Z,2.60
2018-09-27T05:30:18.306Z,2.20
2018-09-27T05:32:47.164Z,2.27
2018-09-27T05:35:15.901Z,2.20
2018-09-27T05:37:44.626Z,2.30
2018-09-27T05:40:13.510Z,2.40
2018-09-27T05:42:42.485Z,2.57
2018-09-27T05:45:11.357Z,2.20
2018-09-27T05:47:40.131Z,2.40
2018-09-27T05:50:09.378Z,2.20
2018-09-27T05:52:38.451Z,2.23
2018-09-27T05:55:07.271Z,1.97
2018-09-27T05:57:36.236Z,7.20
2018-09-27T06:00:05.057Z,3.40
2018-09-27T06:02:33.845Z,2.47
2018-09-27T06:05:02.585Z,2.77
2018-09-27T06:07:31.365Z,2.47
2018-09-27T06:10:00.166Z,2.47
2018-09-27T06:12:28.984Z,2.20
2018-09-27T06:14:57.723Z,2.90
2018-09-27T06:17:26.488Z,2.30
2018-09-27T06:19:55.353Z,1.97
2018-09-27T06:22:24.146Z,2.30
2018-09-27T06:24:52.880Z,2.40
2018-09-27T06:27:21.688Z,2.20
2018-09-27T06:29:50.474Z,2.47
2018-09-27T06:32:19.329Z,2.17
2018-09-27T06:34:48.097Z,1.90
2018-09-27T06:37:16.863Z,2.20
2018-09-27T06:39:45.661Z,2.40
2018-09-27T06:42:14.468Z,2.37
2018-09-27T06:44:43.391Z,2.47
2018-09-27T06:47:12.404Z,1.93
2018-09-27T06:49:41.295Z,2.30
2018-09-27T06:52:11.238Z,2.30
2018-09-27T06:54:40.170Z,2.40
2018-09-27T06:57:11.025Z,2.20
2018-09-27T06:59:40.955Z,2.27
2018-09-27T07:02:09.878Z,2.23
2018-09-27T07:04:38.611Z,1.73
2018-09-27T07:07:07.660Z,2.40
2018-09-27T07:09:37.352Z,2.10
2018-09-27T07:12:07.332Z,2.10
2018-09-27T07:14:36.148Z,2.00
2018-09-27T07:17:04.847Z,2.07
2018-09-27T07:19:33.621Z,2.30
2018-09-27T07:22:02.434Z,2.67
2018-09-27T07:24:34.884Z,2.67
2018-09-27T07:27:03.741Z,2.43
2018-09-27T07:29:36.695Z,2.47
2018-09-27T07:32:05.971Z,2.50
2018-09-27T07:34:34.761Z,2.40
2018-09-27T07:37:08.984Z,2.53
2018-09-27T07:39:37.799Z,2.40
2018-09-27T07:42:06.564Z,2.60
2018-09-27T07:44:35.381Z,2.50
2018-09-27T07:47:05.266Z,1.97
2018-09-27T07:49:34.777Z,2.33
2018-09-27T07:52:04.707Z,2.37
2018-09-27T07:54:33.711Z,2.27
2018-09-27T07:57:03.301Z,2.43
2018-09-27T07:59:32.124Z,2.40
2018-09-27T08:02:00.851Z,2.70
2018-09-27T08:04:29.669Z,2.87
2018-09-27T08:06:58.404Z,2.87
2018-09-27T08:09:27.215Z,2.80
2018-09-27T08:11:56.020Z,2.90
2018-09-27T08:14:24.724Z,2.53
2018-09-27T08:16:53.532Z,2.80
2018-09-27T08:19:22.343Z,2.47
2018-09-27T08:21:51.205Z,2.23
2018-09-27T08:24:19.987Z,2.60
2018-09-27T08:26:48.737Z,2.40
2018-09-27T08:29:17.535Z,2.13
2018-09-27T08:31:46.292Z,2.30
2018-09-27T08:34:15.110Z,2.10
2018-09-27T08:36:43.864Z,2.63
2018-09-27T08:39:13.094Z,2.40
2018-09-27T08:41:41.843Z,2.13
2018-09-27T08:44:11.536Z,2.00
2018-09-27T08:46:41.101Z,2.23
2018-09-27T08:49:09.884Z,1.87
2018-09-27T08:51:38.840Z,2.30
2018-09-27T08:54:07.611Z,2.30
2018-09-27T08:56:36.314Z,1.97
2018-09-27T08:59:05.156Z,1.80
2018-09-27T09:01:33.915Z,2.17
2018-09-27T09:04:02.767Z,1.90
2018-09-27T09:06:31.420Z,1.70
2018-09-27T09:09:00.116Z,1.90
2018-09-27T09:11:28.922Z,1.80
2018-09-27T09:13:57.639Z,1.47
2018-09-27T09:16:26.318Z,2.00
2018-09-27T09:18:55.109Z,1.50
2018-09-27T09:21:24.074Z,1.90
2018-09-27T09:23:52.849Z,1.70
2018-09-27T09:26:21.585Z,1.70
2018-09-27T09:28:50.308Z,1.60
2018-09-27T09:31:18.990Z,1.53
2018-09-27T09:33:47.736Z,1.70
2018-09-27T09:36:16.840Z,1.63
2018-09-27T09:38:45.619Z,1.60
2018-09-27T09:41:14.420Z,1.50
2018-09-27T09:43:43.182Z,2.07
2018-09-27T09:46:12.088Z,1.70
2018-09-27T09:48:40.898Z,1.87
2018-09-27T09:51:09.631Z,1.53
2018-09-27T09:53:38.408Z,1.77
2018-09-27T09:56:07.383Z,1.80
2018-09-27T09:58:36.104Z,1.90
2018-09-27T10:01:04.929Z,1.57
2018-09-27T10:03:33.719Z,1.80
2018-09-27T10:06:02.445Z,1.50
2018-09-27T10:08:31.243Z,1.53
2018-09-27T10:11:00.061Z,1.60
2018-09-27T10:13:28.788Z,1.80
2018-09-27T10:15:58.239Z,1.50
2018-09-27T10:18:27.107Z,1.70
2018-09-27T10:20:56.266Z,1.60
2018-09-27T10:23:24.979Z,1.53
2018-09-27T10:25:53.664Z,1.67
2018-09-27T10:28:22.418Z,1.63
2018-09-27T10:30:51.258Z,1.90
2018-09-27T10:33:19.995Z,1.50
2018-09-27T10:35:48.805Z,1.60
2018-09-27T10:38:22.939Z,1.40
2018-09-27T10:40:51.728Z,1.57
2018-09-27T10:43:20.480Z,1.77
2018-09-27T10:45:49.216Z,1.70
2018-09-27T10:48:17.971Z,1.30
2018-09-27T10:50:46.689Z,1.50
2018-09-27T10:53:23.333Z,1.53
2018-09-27T10:55:52.067Z,1.40
2018-09-27T10:58:20.822Z,1.80
2018-09-27T11:00:49.618Z,2.20
2018-09-27T11:03:18.340Z,1.60
2018-09-27T11:05:47.155Z,1.50
2018-09-27T11:08:15.886Z,1.60
2018-09-27T11:10:44.729Z,1.70
2018-09-27T11:13:19.207Z,1.53
2018-09-27T11:15:47.944Z,1.80
2018-09-27T11:18:16.661Z,1.80
2018-09-27T11:20:45.373Z,1.63
2018-09-27T11:23:14.141Z,1.80
2018-09-27T11:25:43.510Z,1.50
2018-09-27T11:28:12.437Z,1.57
2018-09-27T11:30:41.246Z,1.50
2018-09-27T11:33:10.147Z,1.50
2018-09-27T11:35:38.834Z,1.53
2018-09-27T11:38:07.564Z,1.80
2018-09-27T11:40:36.350Z,1.93
2018-09-27T11:43:05.075Z,1.67
2018-09-27T11:45:33.814Z,1.70
2018-09-27T11:48:02.552Z,1.70
2018-09-27T11:50:31.248Z,1.80
2018-09-27T11:52:59.933Z,1.63
2018-09-27T11:55:28.705Z,1.70
2018-09-27T11:57:57.367Z,1.67
2018-09-27T12:00:26.118Z,1.70
2018-09-27T12:02:54.845Z,1.97
2018-09-27T12:05:23.506Z,1.67
2018-09-27T12:07:52.192Z,1.77
2018-09-27T12:10:20.845Z,1.67
2018-09-27T12:12:49.765Z,1.67
2018-09-27T12:15:19.089Z,1.80
2018-09-27T12:17:49.507Z,1.47
2018-09-27T12:20:18.296Z,2.00
2018-09-27T12:22:47.188Z,1.50
2018-09-27T12:25:15.880Z,1.80
2018-09-27T12:27:44.590Z,1.60
2018-09-27T12:30:13.312Z,1.90
2018-09-27T12:32:42.209Z,1.60
2018-09-27T12:35:10.873Z,1.87
2018-09-27T12:37:39.600Z,1.57
2018-09-27T12:40:08.345Z,1.37
2018-09-27T12:42:37.232Z,1.70
2018-09-27T12:45:06.091Z,1.43
2018-09-27T12:47:34.761Z,1.60
2018-09-27T12:50:03.463Z,1.70
2018-09-27T12:52:32.304Z,1.73
2018-09-27T12:55:00.967Z,1.70
2018-09-27T12:57:29.680Z,1.57
2018-09-27T12:59:58.413Z,1.67
2018-09-27T13:02:27.255Z,1.67
2018-09-27T13:04:56.045Z,1.80
2018-09-27T13:07:24.884Z,1.90
2018-09-27T13:09:54.163Z,1.40
2018-09-27T13:12:22.857Z,2.20
2018-09-27T13:14:51.709Z,1.50
2018-09-27T13:17:20.499Z,1.50
2018-09-27T13:19:49.890Z,1.70
2018-09-27T13:22:19.456Z,1.50
2018-09-27T13:24:48.280Z,1.40
2018-09-27T13:27:16.993Z,1.57
2018-09-27T13:29:45.834Z,1.53
2018-09-27T13:32:14.512Z,1.20
2018-09-27T13:34:43.216Z,1.23
2018-09-27T13:37:12.011Z,1.43
2018-09-27T13:39:40.717Z,1.43
2018-09-27T13:42:09.480Z,1.60
2018-09-27T13:44:38.237Z,1.30
2018-09-27T13:47:07.187Z,1.40
2018-09-27T13:49:35.949Z,1.60
2018-09-27T13:52:04.653Z,1.50
2018-09-27T13:54:33.417Z,1.50
2018-09-27T13:57:02.238Z,1.60
2018-09-27T13:59:30.950Z,1.70
2018-09-27T14:01:59.712Z,1.33
2018-09-27T14:04:28.564Z,1.37
2018-09-27T14:06:57.268Z,1.60
2018-09-27T14:09:25.973Z,1.47
2018-09-27T14:11:54.621Z,1.23
2018-09-27T14:14:23.353Z,1.40
2018-09-27T14:16:52.020Z,1.50
2018-09-27T14:19:20.751Z,1.53
2018-09-27T14:21:49.527Z,1.20
2018-09-27T14:24:18.247Z,1.27
2018-09-27T14:26:47.011Z,1.50
2018-09-27T14:29:15.736Z,1.17
2018-09-27T14:31:44.506Z,1.43
2018-09-27T14:34:13.211Z,1.60
2018-09-27T14:36:42.006Z,1.60
2018-09-27T14:39:11.328Z,1.70
2018-09-27T14:41:40.433Z,1.70
2018-09-27T14:44:09.242Z,1.50
2018-09-27T14:46:37.888Z,1.50
2018-09-27T14:49:06.835Z,1.20
2018-09-27T14:51:35.591Z,1.50
2018-09-27T14:54:04.410Z,1.50
2018-09-27T14:56:34.149Z,1.63
2018-09-27T14:59:02.924Z,1.50
2018-09-27T15:01:31.645Z,1.50
2018-09-27T15:04:00.697Z,1.30
2018-09-27T15:06:29.734Z,1.40
2018-09-27T15:08:58.587Z,1.30
2018-09-27T15:11:27.897Z,1.33
2018-09-27T15:13:56.616Z,1.40
2018-09-27T15:16:25.614Z,1.63
2018-09-27T15:18:54.284Z,1.30
2018-09-27T15:21:23.220Z,1.30
2018-09-27T15:23:51.949Z,1.20
2018-09-27T15:26:20.777Z,1.30
2018-09-27T15:28:49.547Z,1.53
2018-09-27T15:31:18.484Z,1.60
2018-09-27T15:33:47.128Z,1.50
2018-09-27T15:36:17.880Z,1.67
2018-09-27T15:38:47.230Z,1.60
2018-09-27T15:41:20.180Z,1.57
2018-09-27T15:43:48.949Z,1.50
2018-09-27T15:46:17.657Z,1.40
2018-09-27T15:48:46.695Z,1.30
2018-09-27T15:51:15.411Z,1.43
2018-09-27T15:53:44.068Z,1.53
2018-09-27T15:56:12.808Z,1.50
2018-09-27T15:58:41.668Z,1.70
2018-09-27T16:01:10.295Z,1.20
2018-09-27T16:03:38.898Z,1.70
2018-09-27T16:06:07.792Z,1.30
2018-09-27T16:08:36.622Z,1.40
2018-09-27T16:11:05.411Z,1.70
2018-09-27T16:13:34.151Z,1.63
2018-09-27T16:16:02.898Z,1.83
2018-09-27T16:18:31.676Z,1.80
2018-09-27T16:21:00.429Z,1.63
2018-09-27T16:23:29.145Z,1.53
2018-09-27T16:25:58.011Z,1.40
2018-09-27T16:28:26.672Z,1.50
2018-09-27T16:30:55.646Z,1.43
2018-09-27T16:33:24.707Z,1.80
2018-09-27T16:35:53.673Z,1.60
2018-09-27T16:38:22.352Z,1.50
2018-09-27T16:40:51.129Z,1.97
2018-09-27T16:43:19.836Z,1.97
2018-09-27T16:45:48.620Z,1.73
2018-09-27T16:48:17.453Z,1.70
2018-09-27T16:50:46.199Z,3.07
2018-09-27T16:53:14.968Z,3.07
2018-09-27T16:55:43.737Z,2.33
2018-09-27T16:58:12.492Z,2.10
2018-09-27T17:00:41.248Z,1.97
2018-09-27T17:03:10.047Z,2.30
2018-09-27T17:05:38.739Z,2.10
2018-09-27T17:08:07.554Z,2.00
2018-09-27T17:10:36.275Z,2.40
2018-09-27T17:13:05.080Z,1.73
2018-09-27T17:15:33.740Z,2.60
2018-09-27T17:18:02.536Z,3.00
2018-09-27T17:20:31.261Z,2.87
2018-09-27T17:23:00.311Z,2.23
2018-09-27T17:25:28.952Z,2.47
2018-09-27T17:27:57.686Z,2.40
2018-09-27T17:30:26.425Z,2.40
2018-09-27T17:32:55.177Z,2.53
2018-09-27T17:35:23.896Z,2.07
2018-09-27T17:37:52.939Z,2.50
2018-09-27T17:40:22.071Z,2.17
2018-09-27T17:42:50.692Z,2.17
2018-09-27T17:45:19.339Z,2.13
2018-09-27T17:47:48.031Z,2.17
2018-09-27T17:50:16.640Z,2.73
2018-09-27T17:52:45.479Z,3.10
2018-09-27T17:55:14.107Z,2.27
2018-09-27T17:57:42.857Z,2.47
2018-09-27T18:00:11.560Z,2.27
2018-09-27T18:02:40.248Z,2.93
2018-09-27T18:05:18.980Z,1.97
2018-09-27T18:07:37.960Z,2.90
2018-09-27T18:10:06.515Z,3.40
2018-09-27T18:12:35.220Z,3.40
2018-09-27T18:15:03.941Z,2.67
2018-09-27T18:17:32.636Z,2.37
2018-09-27T18:20:01.361Z,2.60
2018-09-27T18:22:30.092Z,2.53
2018-09-27T18:24:58.773Z,2.90
2018-09-27T18:27:27.455Z,2.80
2018-09-27T18:29:56.146Z,2.60
2018-09-27T18:32:24.913Z,2.63
2018-09-27T18:34:53.609Z,2.60
2018-09-27T18:37:22.309Z,2.33
2018-09-27T18:39:51.001Z,2.80
2018-09-27T18:42:19.740Z,2.50
2018-09-27T18:44:48.424Z,2.40
2018-09-27T18:47:17.108Z,2.50
2018-09-27T18:49:45.842Z,2.83
2018-09-27T18:52:14.602Z,2.93
2018-09-27T18:54:43.385Z,2.47
2018-09-27T18:57:12.059Z,2.63
2018-09-27T18:59:40.756Z,2.60
2018-09-27T19:02:09.495Z,3.03
2018-09-27T19:04:38.316Z,2.70
2018-09-27T19:07:07.116Z,2.50
2018-09-27T19:09:35.885Z,2.80
2018-09-27T19:12:04.650Z,2.50
2018-09-27T19:14:33.358Z,2.90
2018-09-27T19:17:02.195Z,2.53
2018-09-27T19:19:31.216Z,3.20
2018-09-27T19:22:00.092Z,3.13
2018-09-27T19:24:28.928Z,2.57
2018-09-27T19:26:57.878Z,2.67
2018-09-27T19:29:26.636Z,2.80
2018-09-27T19:31:55.449Z,2.90
2018-09-27T19:34:24.336Z,3.00
2018-09-27T19:36:53.142Z,3.00
2018-09-27T19:39:22.047Z,3.27
2018-09-27T19:41:50.593Z,2.80
2018-09-27T19:44:19.319Z,3.43
2018-09-27T19:46:48.073Z,3.40
2018-09-27T19:49:16.748Z,3.23
2018-09-27T19:51:45.475Z,3.03
2018-09-27T19:54:14.147Z,3.33
2018-09-27T19:56:42.850Z,3.13
2018-09-27T19:59:11.542Z,2.57
2018-09-27T20:01:40.298Z,3.00
2018-09-27T20:04:08.994Z,2.93
2018-09-27T20:06:37.757Z,3.37
2018-09-27T20:09:09.628Z,3.50
2018-09-27T20:11:38.306Z,3.00
2018-09-27T20:14:07.813Z,2.87
2018-09-27T20:16:36.808Z,2.90
2018-09-27T20:19:06.711Z,2.87
2018-09-27T20:21:35.427Z,2.60
2018-09-27T20:24:04.220Z,2.73
2018-09-27T20:26:32.921Z,2.60
2018-09-27T20:29:01.736Z,2.93
2018-09-27T20:31:30.459Z,3.47
2018-09-27T20:33:59.192Z,3.13
2018-09-27T20:36:28.373Z,2.97
2018-09-27T20:38:57.396Z,3.00
2018-09-27T20:41:26.421Z,3.10
2018-09-27T20:43:55.133Z,3.03
2018-09-27T20:46:23.789Z,2.93
2018-09-27T20:48:52.586Z,3.20
2018-09-27T20:51:21.273Z,3.17
2018-09-27T20:53:50.201Z,3.40
2018-09-27T20:56:18.949Z,3.20
2018-09-27T20:58:47.633Z,2.90
2018-09-27T21:01:16.312Z,3.17
2018-09-27T21:03:45.025Z,3.03
2018-09-27T21:06:13.691Z,2.90
2018-09-27T21:08:42.355Z,3.20
2018-09-27T21:11:11.141Z,3.50
2018-09-27T21:13:39.852Z,2.70
2018-09-27T21:16:08.625Z,2.90
2018-09-27T21:18:37.308Z,3.03
2018-09-27T21:21:06.047Z,2.93
2018-09-27T21:23:35.075Z,2.97
2018-09-27T21:26:03.800Z,3.63
2018-09-27T21:28:32.452Z,3.20
2018-09-27T21:31:01.131Z,3.47
2018-09-27T21:33:29.817Z,3.30
2018-09-27T21:35:58.547Z,2.80
2018-09-27T21:38:27.288Z,3.17
2018-09-27T21:40:56.100Z,2.87
2018-09-27T21:43:24.757Z,3.10
2018-09-27T21:45:53.460Z,2.57
2018-09-27T21:48:22.129Z,2.80
2018-09-27T21:50:50.847Z,2.70
2018-09-27T21:53:19.596Z,3.40
2018-09-27T21:55:48.297Z,3.53
2018-09-27T21:58:17.018Z,3.30
2018-09-27T22:00:45.839Z,3.40
2018-09-27T22:03:14.559Z,3.60
2018-09-27T22:05:43.308Z,3.70
2018-09-27T22:08:12.037Z,3.30
2018-09-27T22:10:40.756Z,3.30
2018-09-27T22:13:09.476Z,3.27
2018-09-27T22:15:38.187Z,3.37
2018-09-27T22:18:06.982Z,3.63
2018-09-27T22:20:35.663Z,3.50
2018-09-27T22:23:04.398Z,3.60
2018-09-27T22:25:33.137Z,3.57
2018-09-27T22:28:01.892Z,3.80
2018-09-27T22:30:30.560Z,3.40
2018-09-27T22:32:59.352Z,3.10
2018-09-27T22:35:28.060Z,3.20
2018-09-27T22:37:56.756Z,3.37
2018-09-27T22:40:25.473Z,3.23
2018-09-27T22:42:54.209Z,2.83
2018-09-27T22:45:22.895Z,2.97
2018-09-27T22:47:51.676Z,3.33
2018-09-27T22:50:20.371Z,3.30
2018-09-27T22:52:49.043Z,3.20
2018-09-27T22:55:17.791Z,3.53
2018-09-27T22:57:46.501Z,2.93
2018-09-27T23:00:15.262Z,3.10
2018-09-27T23:02:44.031Z,3.03
2018-09-27T23:05:12.896Z,3.40
2018-09-27T23:07:41.695Z,3.37
2018-09-27T23:10:10.395Z,3.10
2018-09-27T23:12:39.183Z,3.00
2018-09-27T23:15:08.188Z,2.80
2018-09-27T23:17:37.217Z,2.93
2018-09-27T23:20:07.060Z,3.07
2018-09-27T23:22:35.790Z,3.20
2018-09-27T23:25:04.572Z,3.00
2018-09-27T23:27:33.240Z,3.30
2018-09-27T23:30:01.988Z,3.07
2018-09-27T23:32:30.656Z,3.27
2018-09-27T23:34:59.373Z,3.10
2018-09-27T23:37:28.033Z,3.17
2018-09-27T23:39:56.753Z,3.10
2018-09-27T23:42:25.473Z,3.20
2018-09-27T23:44:54.233Z,3.13
2018-09-27T23:47:22.943Z,3.20
2018-09-27T23:49:51.654Z,3.10
2018-09-27T23:52:20.390Z,3.33
2018-09-27T23:54:49.228Z,3.30
2018-09-27T23:57:17.925Z,3.30
2018-09-27T23:59:46.772Z,3.27
